sensor_id;sensor_type;location;lat;lon;timestamp;temperature;humidity
74488;DHT22;63019;51.080;13.642;2024-02-21T03:22:54;7.90;99.90
74488;DHT22;63019;51.080;13.642;2024-02-21T03:25:32;7.80;99.90
74488;DHT22;63019;51.080;13.642;2024-02-21T03:41:28;7.90;99.90
74488;DHT22;63019;51.080;13.642;2024-02-21T03:45:10;7.90;99.90
74488;DHT22;63019;51.080;13.642;2024-02-21T03:46:36;7.90;99.90
74488;DHT22;63019;51.080;13.642;2024-02-21T03:53:32;7.90;99.90
74488;DHT22;63019;51.080;13.642;2024-02-21T03:55:45;7.90;99.90
74488;DHT22;63019;51.080;13.642;2024-02-21T03:56:48;7.90;99.90
74488;DHT22;63019;51.080;13.642;2024-02-21T04:02:52;8.00;99.90
74488;DHT22;63019;51.080;13.642;2024-02-21T04:05:11;7.90;99.90
74488;DHT22;63019;51.080;13.642;2024-02-21T04:07:47;7.90;99.90
74488;DHT22;63019;51.080;13.642;2024-02-21T04:12:37;7.90;99.90
74488;DHT22;63019;51.080;13.642;2024-02-21T04:26:19;7.80;99.90
74488;DHT22;63019;51.080;13.642;2024-02-21T04:35:24;7.80;99.90
74488;DHT22;63019;51.080;13.642;2024-02-21T06:37:53;7.80;99.90
74488;DHT22;63019;51.080;13.642;2024-02-21T06:39:28;7.70;99.90
74488;DHT22;63019;51.080;13.642;2024-02-21T06:47:43;7.70;99.90
74488;DHT22;63019;51.080;13.642;2024-02-21T10:01:24;8.90;99.90
74488;DHT22;63019;51.080;13.642;2024-02-21T10:49:50;9.20;99.90
74488;DHT22;63019;51.080;13.642;2024-02-21T10:59:40;9.20;99.90
74488;DHT22;63019;51.080;13.642;2024-02-21T11:04:27;9.30;99.90
74488;DHT22;63019;51.080;13.642;2024-02-21T11:12:11;9.20;99.90
74488;DHT22;63019;51.080;13.642;2024-02-21T11:35:36;9.40;99.90
74488;DHT22;63019;51.080;13.642;2024-02-21T11:53:39;9.70;99.90
74488;DHT22;63019;51.080;13.642;2024-02-21T11:55:26;9.70;99.90
74488;DHT22;63019;51.080;13.642;2024-02-21T11:57:03;9.70;99.90
74488;DHT22;63019;51.080;13.642;2024-02-21T11:58:42;9.70;99.90
74488;DHT22;63019;51.080;13.642;2024-02-21T12:01:52;9.70;99.90
74488;DHT22;63019;51.080;13.642;2024-02-21T12:03:19;9.80;99.90
74488;DHT22;63019;51.080;13.642;2024-02-21T12:06:17;9.80;99.90
74488;DHT22;63019;51.080;13.642;2024-02-21T12:07:30;9.80;99.90
74488;DHT22;63019;51.080;13.642;2024-02-21T12:09:25;9.80;99.90
74488;DHT22;63019;51.080;13.642;2024-02-21T12:11:00;9.80;99.90
74488;DHT22;63019;51.080;13.642;2024-02-21T12:12:14;9.80;99.90
74488;DHT22;63019;51.080;13.642;2024-02-21T12:13:39;9.80;99.90
74488;DHT22;63019;51.080;13.642;2024-02-21T12:14:56;9.80;99.90
74488;DHT22;63019;51.080;13.642;2024-02-21T12:16:24;9.80;99.90
74488;DHT22;63019;51.080;13.642;2024-02-21T12:18:06;9.80;99.90
74488;DHT22;63019;51.080;13.642;2024-02-21T12:19:22;9.90;99.90
74488;DHT22;63019;51.080;13.642;2024-02-21T12:20:48;9.90;99.90
74488;DHT22;63019;51.080;13.642;2024-02-21T12:21:50;10.00;99.90
74488;DHT22;63019;51.080;13.642;2024-02-21T12:22:53;10.00;99.90
74488;DHT22;63019;51.080;13.642;2024-02-21T12:23:56;10.10;99.90
74488;DHT22;63019;51.080;13.642;2024-02-21T12:24:59;10.10;99.90
74488;DHT22;63019;51.080;13.642;2024-02-21T12:26:01;10.10;99.90
74488;DHT22;63019;51.080;13.642;2024-02-21T12:27:06;10.20;99.90
74488;DHT22;63019;51.080;13.642;2024-02-21T12:28:15;10.10;99.90
74488;DHT22;63019;51.080;13.642;2024-02-21T12:29:37;10.20;99.90
74488;DHT22;63019;51.080;13.642;2024-02-21T12:30:41;10.20;99.90
74488;DHT22;63019;51.080;13.642;2024-02-21T12:31:46;10.20;99.90
74488;DHT22;63019;51.080;13.642;2024-02-21T12:32:49;10.30;99.90
74488;DHT22;63019;51.080;13.642;2024-02-21T12:33:51;10.40;99.90
74488;DHT22;63019;51.080;13.642;2024-02-21T12:34:55;10.40;99.90
74488;DHT22;63019;51.080;13.642;2024-02-21T12:35:57;10.40;99.90
74488;DHT22;63019;51.080;13.642;2024-02-21T12:37:01;10.40;99.90
74488;DHT22;63019;51.080;13.642;2024-02-21T12:38:05;10.50;99.90
74488;DHT22;63019;51.080;13.642;2024-02-21T12:39:07;10.50;99.90
74488;DHT22;63019;51.080;13.642;2024-02-21T12:40:12;10.50;99.90
74488;DHT22;63019;51.080;13.642;2024-02-21T12:41:16;10.50;99.90
74488;DHT22;63019;51.080;13.642;2024-02-21T12:42:19;10.50;99.90
74488;DHT22;63019;51.080;13.642;2024-02-21T12:43:21;10.60;99.90
74488;DHT22;63019;51.080;13.642;2024-02-21T12:44:24;10.60;99.90
74488;DHT22;63019;51.080;13.642;2024-02-21T12:45:30;10.60;99.90
74488;DHT22;63019;51.080;13.642;2024-02-21T12:48:26;10.60;99.90
74488;DHT22;63019;51.080;13.642;2024-02-21T12:49:28;10.70;99.90
74488;DHT22;63019;51.080;13.642;2024-02-21T12:50:32;10.70;99.90
74488;DHT22;63019;51.080;13.642;2024-02-21T12:51:39;10.80;99.90
74488;DHT22;63019;51.080;13.642;2024-02-21T12:52:45;10.70;99.90
74488;DHT22;63019;51.080;13.642;2024-02-21T12:56:40;10.80;99.90
74488;DHT22;63019;51.080;13.642;2024-02-21T12:57:43;10.80;99.90
74488;DHT22;63019;51.080;13.642;2024-02-21T12:58:45;10.90;99.90
74488;DHT22;63019;51.080;13.642;2024-02-21T12:59:46;10.90;99.90
74488;DHT22;63019;51.080;13.642;2024-02-21T13:00:48;10.90;99.90
74488;DHT22;63019;51.080;13.642;2024-02-21T13:01:50;10.90;99.90
74488;DHT22;63019;51.080;13.642;2024-02-21T13:04:31;10.90;99.90
74488;DHT22;63019;51.080;13.642;2024-02-21T13:05:42;10.90;99.90
74488;DHT22;63019;51.080;13.642;2024-02-21T13:07:28;10.90;99.90
74488;DHT22;63019;51.080;13.642;2024-02-21T13:08:44;10.90;99.90
74488;DHT22;63019;51.080;13.642;2024-02-21T13:11:57;10.90;99.90
74488;DHT22;63019;51.080;13.642;2024-02-21T13:13:32;10.90;99.90
74488;DHT22;63019;51.080;13.642;2024-02-21T13:15:21;10.90;99.90
74488;DHT22;63019;51.080;13.642;2024-02-21T13:16:59;10.90;99.90
74488;DHT22;63019;51.080;13.642;2024-02-21T13:18:37;10.80;99.90
74488;DHT22;63019;51.080;13.642;2024-02-21T13:20:13;10.80;99.90
74488;DHT22;63019;51.080;13.642;2024-02-21T13:21:26;10.80;99.90
74488;DHT22;63019;51.080;13.642;2024-02-21T13:22:28;10.80;99.90
74488;DHT22;63019;51.080;13.642;2024-02-21T13:23:30;10.70;99.90
74488;DHT22;63019;51.080;13.642;2024-02-21T13:24:32;10.70;99.90
74488;DHT22;63019;51.080;13.642;2024-02-21T13:25:34;10.80;99.90
74488;DHT22;63019;51.080;13.642;2024-02-21T13:26:36;10.80;99.90
74488;DHT22;63019;51.080;13.642;2024-02-21T13:27:38;10.80;99.90
74488;DHT22;63019;51.080;13.642;2024-02-21T13:28:40;10.80;99.90
74488;DHT22;63019;51.080;13.642;2024-02-21T13:29:42;10.90;99.90
74488;DHT22;63019;51.080;13.642;2024-02-21T13:30:44;10.90;99.90
74488;DHT22;63019;51.080;13.642;2024-02-21T13:31:47;11.00;99.90
74488;DHT22;63019;51.080;13.642;2024-02-21T13:32:49;11.00;99.90
74488;DHT22;63019;51.080;13.642;2024-02-21T13:33:50;11.00;99.90
74488;DHT22;63019;51.080;13.642;2024-02-21T13:34:54;11.00;99.90
74488;DHT22;63019;51.080;13.642;2024-02-21T13:35:56;11.10;99.90
74488;DHT22;63019;51.080;13.642;2024-02-21T13:36:58;11.10;99.90
74488;DHT22;63019;51.080;13.642;2024-02-21T13:38:01;11.10;99.90
74488;DHT22;63019;51.080;13.642;2024-02-21T13:39:03;11.10;99.90
74488;DHT22;63019;51.080;13.642;2024-02-21T13:40:07;11.10;99.90
74488;DHT22;63019;51.080;13.642;2024-02-21T13:41:12;11.10;99.90
74488;DHT22;63019;51.080;13.642;2024-02-21T13:42:15;11.10;99.90
74488;DHT22;63019;51.080;13.642;2024-02-21T13:43:17;11.20;99.90
74488;DHT22;63019;51.080;13.642;2024-02-21T13:44:21;11.20;99.90
74488;DHT22;63019;51.080;13.642;2024-02-21T13:45:26;11.30;99.90
74488;DHT22;63019;51.080;13.642;2024-02-21T13:46:43;11.30;99.90
74488;DHT22;63019;51.080;13.642;2024-02-21T13:47:48;11.40;99.90
74488;DHT22;63019;51.080;13.642;2024-02-21T13:49:02;11.40;99.90
74488;DHT22;63019;51.080;13.642;2024-02-21T13:50:09;11.50;99.90
74488;DHT22;63019;51.080;13.642;2024-02-21T13:51:12;11.50;99.90
74488;DHT22;63019;51.080;13.642;2024-02-21T13:52:14;11.50;99.90
74488;DHT22;63019;51.080;13.642;2024-02-21T13:53:16;11.50;99.90
74488;DHT22;63019;51.080;13.642;2024-02-21T13:54:20;11.50;99.90
74488;DHT22;63019;51.080;13.642;2024-02-21T13:55:23;11.50;99.90
74488;DHT22;63019;51.080;13.642;2024-02-21T13:56:28;11.60;99.90
74488;DHT22;63019;51.080;13.642;2024-02-21T13:57:30;11.60;99.90
74488;DHT22;63019;51.080;13.642;2024-02-21T13:58:32;11.70;99.90
74488;DHT22;63019;51.080;13.642;2024-02-21T13:59:34;11.70;99.90
74488;DHT22;63019;51.080;13.642;2024-02-21T14:00:36;11.60;99.90
74488;DHT22;63019;51.080;13.642;2024-02-21T14:01:38;11.70;99.90
74488;DHT22;63019;51.080;13.642;2024-02-21T14:02:40;11.70;99.90
74488;DHT22;63019;51.080;13.642;2024-02-21T14:03:42;11.70;99.90
74488;DHT22;63019;51.080;13.642;2024-02-21T14:04:44;11.70;99.90
74488;DHT22;63019;51.080;13.642;2024-02-21T14:05:46;11.70;99.90
74488;DHT22;63019;51.080;13.642;2024-02-21T14:06:50;11.70;99.90
74488;DHT22;63019;51.080;13.642;2024-02-21T14:07:52;11.80;99.90
74488;DHT22;63019;51.080;13.642;2024-02-21T14:08:56;11.80;99.90
74488;DHT22;63019;51.080;13.642;2024-02-21T14:09:58;11.80;99.90
74488;DHT22;63019;51.080;13.642;2024-02-21T14:11:00;11.80;99.90
74488;DHT22;63019;51.080;13.642;2024-02-21T14:12:03;11.90;99.90
74488;DHT22;63019;51.080;13.642;2024-02-21T14:13:05;11.90;99.90
74488;DHT22;63019;51.080;13.642;2024-02-21T14:14:10;11.90;99.90
74488;DHT22;63019;51.080;13.642;2024-02-21T14:15:12;11.90;99.90
74488;DHT22;63019;51.080;13.642;2024-02-21T14:16:14;11.90;99.90
74488;DHT22;63019;51.080;13.642;2024-02-21T14:17:16;12.00;99.90
74488;DHT22;63019;51.080;13.642;2024-02-21T14:18:18;12.00;99.90
74488;DHT22;63019;51.080;13.642;2024-02-21T14:19:20;12.00;99.90
74488;DHT22;63019;51.080;13.642;2024-02-21T14:20:22;12.00;99.90
74488;DHT22;63019;51.080;13.642;2024-02-21T14:21:25;12.00;99.90
74488;DHT22;63019;51.080;13.642;2024-02-21T14:22:27;12.00;99.90
74488;DHT22;63019;51.080;13.642;2024-02-21T14:23:29;12.00;99.90
74488;DHT22;63019;51.080;13.642;2024-02-21T14:24:31;12.00;99.90
74488;DHT22;63019;51.080;13.642;2024-02-21T14:25:33;12.00;99.90
74488;DHT22;63019;51.080;13.642;2024-02-21T14:26:35;12.00;99.90
74488;DHT22;63019;51.080;13.642;2024-02-21T14:27:37;12.00;99.90
74488;DHT22;63019;51.080;13.642;2024-02-21T14:28:40;12.00;99.90
74488;DHT22;63019;51.080;13.642;2024-02-21T14:29:42;12.00;99.90
74488;DHT22;63019;51.080;13.642;2024-02-21T14:30:44;12.00;99.90
74488;DHT22;63019;51.080;13.642;2024-02-21T14:31:46;12.10;99.90
74488;DHT22;63019;51.080;13.642;2024-02-21T14:32:48;12.10;99.90
74488;DHT22;63019;51.080;13.642;2024-02-21T14:33:50;12.10;99.90
74488;DHT22;63019;51.080;13.642;2024-02-21T14:34:52;12.10;99.90
74488;DHT22;63019;51.080;13.642;2024-02-21T14:35:54;12.20;99.90
74488;DHT22;63019;51.080;13.642;2024-02-21T14:36:56;12.20;99.90
74488;DHT22;63019;51.080;13.642;2024-02-21T14:37:58;12.30;99.90
74488;DHT22;63019;51.080;13.642;2024-02-21T14:39:02;12.30;99.90
74488;DHT22;63019;51.080;13.642;2024-02-21T14:40:06;12.30;99.90
74488;DHT22;63019;51.080;13.642;2024-02-21T14:41:09;12.40;99.90
74488;DHT22;63019;51.080;13.642;2024-02-21T14:42:14;12.40;99.90
74488;DHT22;63019;51.080;13.642;2024-02-21T14:43:15;12.40;99.40
74488;DHT22;63019;51.080;13.642;2024-02-21T14:44:19;12.30;99.40
74488;DHT22;63019;51.080;13.642;2024-02-21T14:45:21;12.40;99.00
74488;DHT22;63019;51.080;13.642;2024-02-21T14:46:24;12.40;99.30
74488;DHT22;63019;51.080;13.642;2024-02-21T14:47:26;12.30;98.60
74488;DHT22;63019;51.080;13.642;2024-02-21T14:48:28;12.30;97.80
74488;DHT22;63019;51.080;13.642;2024-02-21T14:49:31;12.30;97.90
74488;DHT22;63019;51.080;13.642;2024-02-21T14:50:33;12.20;97.80
74488;DHT22;63019;51.080;13.642;2024-02-21T14:51:35;12.20;97.60
74488;DHT22;63019;51.080;13.642;2024-02-21T14:52:37;12.20;97.60
74488;DHT22;63019;51.080;13.642;2024-02-21T14:53:40;12.20;97.70
74488;DHT22;63019;51.080;13.642;2024-02-21T14:54:41;12.20;97.50
74488;DHT22;63019;51.080;13.642;2024-02-21T14:55:47;12.20;97.90
74488;DHT22;63019;51.080;13.642;2024-02-21T14:56:51;12.20;97.90
74488;DHT22;63019;51.080;13.642;2024-02-21T14:57:52;12.20;98.00
74488;DHT22;63019;51.080;13.642;2024-02-21T14:58:54;12.20;97.80
74488;DHT22;63019;51.080;13.642;2024-02-21T15:00:03;12.20;98.00
74488;DHT22;63019;51.080;13.642;2024-02-21T15:01:10;12.20;97.50
74488;DHT22;63019;51.080;13.642;2024-02-21T15:02:12;12.20;97.40
74488;DHT22;63019;51.080;13.642;2024-02-21T15:03:16;12.10;97.70
74488;DHT22;63019;51.080;13.642;2024-02-21T15:04:17;12.10;97.70
74488;DHT22;63019;51.080;13.642;2024-02-21T15:05:19;12.10;97.80
74488;DHT22;63019;51.080;13.642;2024-02-21T15:06:22;12.10;97.70
74488;DHT22;63019;51.080;13.642;2024-02-21T15:07:24;12.10;97.70
74488;DHT22;63019;51.080;13.642;2024-02-21T15:08:27;12.00;97.80
74488;DHT22;63019;51.080;13.642;2024-02-21T15:09:32;12.10;97.80
74488;DHT22;63019;51.080;13.642;2024-02-21T15:10:40;12.00;98.00
74488;DHT22;63019;51.080;13.642;2024-02-21T15:11:44;12.10;98.10
74488;DHT22;63019;51.080;13.642;2024-02-21T15:12:46;12.10;98.20
74488;DHT22;63019;51.080;13.642;2024-02-21T15:13:48;12.20;98.30
74488;DHT22;63019;51.080;13.642;2024-02-21T15:14:52;12.20;98.30
74488;DHT22;63019;51.080;13.642;2024-02-21T15:15:54;12.20;98.10
74488;DHT22;63019;51.080;13.642;2024-02-21T15:16:56;12.10;98.00
74488;DHT22;63019;51.080;13.642;2024-02-21T15:17:58;12.20;98.30
74488;DHT22;63019;51.080;13.642;2024-02-21T15:19:00;12.10;97.60
74488;DHT22;63019;51.080;13.642;2024-02-21T15:20:03;12.10;97.80
74488;DHT22;63019;51.080;13.642;2024-02-21T15:21:07;12.10;97.70
74488;DHT22;63019;51.080;13.642;2024-02-21T15:22:45;12.10;97.60
74488;DHT22;63019;51.080;13.642;2024-02-21T15:23:47;12.10;97.80
74488;DHT22;63019;51.080;13.642;2024-02-21T15:24:49;12.00;98.00
74488;DHT22;63019;51.080;13.642;2024-02-21T15:25:51;12.00;98.10
74488;DHT22;63019;51.080;13.642;2024-02-21T15:26:53;12.00;98.00
74488;DHT22;63019;51.080;13.642;2024-02-21T15:27:55;12.00;98.20
74488;DHT22;63019;51.080;13.642;2024-02-21T15:28:57;12.00;98.00
74488;DHT22;63019;51.080;13.642;2024-02-21T15:29:59;12.00;98.30
74488;DHT22;63019;51.080;13.642;2024-02-21T15:31:03;11.90;98.20
74488;DHT22;63019;51.080;13.642;2024-02-21T15:32:05;12.00;98.30
74488;DHT22;63019;51.080;13.642;2024-02-21T15:33:08;12.00;98.20
74488;DHT22;63019;51.080;13.642;2024-02-21T15:34:10;12.00;98.20
74488;DHT22;63019;51.080;13.642;2024-02-21T15:35:14;12.00;98.20
74488;DHT22;63019;51.080;13.642;2024-02-21T15:36:16;12.00;98.50
74488;DHT22;63019;51.080;13.642;2024-02-21T15:37:21;12.00;98.00
74488;DHT22;63019;51.080;13.642;2024-02-21T15:38:23;12.00;98.20
74488;DHT22;63019;51.080;13.642;2024-02-21T15:39:26;12.00;97.90
74488;DHT22;63019;51.080;13.642;2024-02-21T15:40:29;11.90;97.60
74488;DHT22;63019;51.080;13.642;2024-02-21T15:41:34;11.90;97.80
74488;DHT22;63019;51.080;13.642;2024-02-21T15:42:37;11.90;97.80
74488;DHT22;63019;51.080;13.642;2024-02-21T15:43:40;11.90;97.80
74488;DHT22;63019;51.080;13.642;2024-02-21T15:44:42;11.90;97.70
74488;DHT22;63019;51.080;13.642;2024-02-21T15:45:44;11.90;98.00
74488;DHT22;63019;51.080;13.642;2024-02-21T15:46:46;11.90;97.80
74488;DHT22;63019;51.080;13.642;2024-02-21T15:47:48;11.80;98.00
74488;DHT22;63019;51.080;13.642;2024-02-21T15:48:52;11.80;97.90
74488;DHT22;63019;51.080;13.642;2024-02-21T15:49:57;11.80;98.30
74488;DHT22;63019;51.080;13.642;2024-02-21T15:51:01;11.70;97.80
74488;DHT22;63019;51.080;13.642;2024-02-21T15:52:06;11.70;97.50
74488;DHT22;63019;51.080;13.642;2024-02-21T15:53:10;11.70;97.90
74488;DHT22;63019;51.080;13.642;2024-02-21T15:54:12;11.70;97.80
74488;DHT22;63019;51.080;13.642;2024-02-21T15:55:19;11.70;98.00
74488;DHT22;63019;51.080;13.642;2024-02-21T15:56:22;11.60;98.20
74488;DHT22;63019;51.080;13.642;2024-02-21T15:57:25;11.60;98.70
74488;DHT22;63019;51.080;13.642;2024-02-21T15:58:27;11.60;98.70
74488;DHT22;63019;51.080;13.642;2024-02-21T15:59:29;11.50;98.40
74488;DHT22;63019;51.080;13.642;2024-02-21T16:00:33;11.50;98.20
74488;DHT22;63019;51.080;13.642;2024-02-21T16:01:35;11.40;98.10
74488;DHT22;63019;51.080;13.642;2024-02-21T16:02:40;11.40;98.10
74488;DHT22;63019;51.080;13.642;2024-02-21T16:03:46;11.40;98.10
74488;DHT22;63019;51.080;13.642;2024-02-21T16:04:48;11.40;98.10
74488;DHT22;63019;51.080;13.642;2024-02-21T16:05:51;11.40;98.00
74488;DHT22;63019;51.080;13.642;2024-02-21T16:06:53;11.40;98.40
74488;DHT22;63019;51.080;13.642;2024-02-21T16:07:55;11.40;98.00
74488;DHT22;63019;51.080;13.642;2024-02-21T16:08:57;11.30;98.10
74488;DHT22;63019;51.080;13.642;2024-02-21T16:09:59;11.30;98.20
74488;DHT22;63019;51.080;13.642;2024-02-21T16:11:05;11.30;98.70
74488;DHT22;63019;51.080;13.642;2024-02-21T16:12:07;11.20;98.80
74488;DHT22;63019;51.080;13.642;2024-02-21T16:13:10;11.20;98.40
74488;DHT22;63019;51.080;13.642;2024-02-21T16:14:12;11.20;98.30
74488;DHT22;63019;51.080;13.642;2024-02-21T16:15:14;11.20;98.40
74488;DHT22;63019;51.080;13.642;2024-02-21T16:16:16;11.10;98.50
74488;DHT22;63019;51.080;13.642;2024-02-21T16:17:21;11.10;98.70
74488;DHT22;63019;51.080;13.642;2024-02-21T16:18:24;11.00;98.90
74488;DHT22;63019;51.080;13.642;2024-02-21T16:19:26;11.00;98.90
74488;DHT22;63019;51.080;13.642;2024-02-21T16:20:31;11.00;99.10
74488;DHT22;63019;51.080;13.642;2024-02-21T16:21:35;10.90;99.40
74488;DHT22;63019;51.080;13.642;2024-02-21T16:22:37;10.90;98.90
74488;DHT22;63019;51.080;13.642;2024-02-21T16:23:42;10.90;98.50
74488;DHT22;63019;51.080;13.642;2024-02-21T16:24:47;10.90;98.20
74488;DHT22;63019;51.080;13.642;2024-02-21T16:25:53;10.80;98.50
74488;DHT22;63019;51.080;13.642;2024-02-21T16:26:56;10.80;98.30
74488;DHT22;63019;51.080;13.642;2024-02-21T16:27:58;10.80;98.50
74488;DHT22;63019;51.080;13.642;2024-02-21T16:29:02;10.70;98.60
74488;DHT22;63019;51.080;13.642;2024-02-21T16:30:05;10.70;98.40
74488;DHT22;63019;51.080;13.642;2024-02-21T16:31:12;10.60;98.70
74488;DHT22;63019;51.080;13.642;2024-02-21T16:32:14;10.60;98.90
74488;DHT22;63019;51.080;13.642;2024-02-21T16:33:16;10.60;99.20
74488;DHT22;63019;51.080;13.642;2024-02-21T16:34:18;10.50;99.00
74488;DHT22;63019;51.080;13.642;2024-02-21T16:35:20;10.50;98.90
74488;DHT22;63019;51.080;13.642;2024-02-21T16:36:23;10.50;98.90
74488;DHT22;63019;51.080;13.642;2024-02-21T16:37:25;10.50;98.70
74488;DHT22;63019;51.080;13.642;2024-02-21T16:38:27;10.50;99.70
74488;DHT22;63019;51.080;13.642;2024-02-21T16:39:29;10.40;99.50
74488;DHT22;63019;51.080;13.642;2024-02-21T16:40:31;10.40;99.60
74488;DHT22;63019;51.080;13.642;2024-02-21T16:41:33;10.30;99.60
74488;DHT22;63019;51.080;13.642;2024-02-21T16:42:37;10.30;99.40
74488;DHT22;63019;51.080;13.642;2024-02-21T16:43:39;10.20;99.60
74488;DHT22;63019;51.080;13.642;2024-02-21T16:44:41;10.10;99.50
74488;DHT22;63019;51.080;13.642;2024-02-21T16:45:42;10.20;99.90
74488;DHT22;63019;51.080;13.642;2024-02-21T16:46:45;10.10;99.90
74488;DHT22;63019;51.080;13.642;2024-02-21T16:47:47;10.10;99.90
74488;DHT22;63019;51.080;13.642;2024-02-21T16:48:49;10.00;99.90
74488;DHT22;63019;51.080;13.642;2024-02-21T16:49:53;10.00;99.90
74488;DHT22;63019;51.080;13.642;2024-02-21T16:50:55;9.90;99.90
74488;DHT22;63019;51.080;13.642;2024-02-21T16:52:02;9.90;99.90
74488;DHT22;63019;51.080;13.642;2024-02-21T16:53:06;9.80;99.90
74488;DHT22;63019;51.080;13.642;2024-02-21T16:54:08;9.80;99.90
74488;DHT22;63019;51.080;13.642;2024-02-21T16:55:13;9.70;99.90
74488;DHT22;63019;51.080;13.642;2024-02-21T16:56:23;9.60;99.90
74488;DHT22;63019;51.080;13.642;2024-02-21T16:57:25;9.50;99.90
74488;DHT22;63019;51.080;13.642;2024-02-21T16:58:27;9.50;99.90
74488;DHT22;63019;51.080;13.642;2024-02-21T16:59:32;9.40;99.90
74488;DHT22;63019;51.080;13.642;2024-02-21T17:00:38;9.40;99.90
74488;DHT22;63019;51.080;13.642;2024-02-21T17:01:42;9.30;99.90
74488;DHT22;63019;51.080;13.642;2024-02-21T17:02:45;9.20;99.90
74488;DHT22;63019;51.080;13.642;2024-02-21T17:03:59;9.20;99.90
74488;DHT22;63019;51.080;13.642;2024-02-21T17:05:01;9.20;99.90
74488;DHT22;63019;51.080;13.642;2024-02-21T17:06:04;9.20;99.90
74488;DHT22;63019;51.080;13.642;2024-02-21T17:07:20;9.10;99.90
74488;DHT22;63019;51.080;13.642;2024-02-21T17:08:24;9.10;99.90
74488;DHT22;63019;51.080;13.642;2024-02-21T17:09:27;9.10;99.90
74488;DHT22;63019;51.080;13.642;2024-02-21T17:10:30;9.10;99.90
74488;DHT22;63019;51.080;13.642;2024-02-21T17:11:34;9.10;99.90
74488;DHT22;63019;51.080;13.642;2024-02-21T17:12:37;9.10;99.90
74488;DHT22;63019;51.080;13.642;2024-02-21T17:13:40;9.00;99.90
74488;DHT22;63019;51.080;13.642;2024-02-21T17:14:43;9.00;99.90
74488;DHT22;63019;51.080;13.642;2024-02-21T17:15:49;9.00;99.90
74488;DHT22;63019;51.080;13.642;2024-02-21T17:16:52;8.90;99.90
74488;DHT22;63019;51.080;13.642;2024-02-21T17:17:56;9.00;99.90
74488;DHT22;63019;51.080;13.642;2024-02-21T17:19:01;9.00;99.90
74488;DHT22;63019;51.080;13.642;2024-02-21T17:20:04;8.90;99.90
74488;DHT22;63019;51.080;13.642;2024-02-21T17:21:09;8.90;99.90
74488;DHT22;63019;51.080;13.642;2024-02-21T17:22:11;8.80;99.90
74488;DHT22;63019;51.080;13.642;2024-02-21T17:23:13;8.80;99.90
74488;DHT22;63019;51.080;13.642;2024-02-21T17:24:17;8.80;99.90
74488;DHT22;63019;51.080;13.642;2024-02-21T17:25:22;8.80;99.90
74488;DHT22;63019;51.080;13.642;2024-02-21T17:26:24;8.80;99.90
74488;DHT22;63019;51.080;13.642;2024-02-21T17:27:27;8.80;99.90
74488;DHT22;63019;51.080;13.642;2024-02-21T17:28:30;8.70;99.90
74488;DHT22;63019;51.080;13.642;2024-02-21T17:29:33;8.70;99.90
74488;DHT22;63019;51.080;13.642;2024-02-21T17:30:36;8.70;99.90
74488;DHT22;63019;51.080;13.642;2024-02-21T17:31:38;8.70;99.90
74488;DHT22;63019;51.080;13.642;2024-02-21T17:32:40;8.70;99.90
74488;DHT22;63019;51.080;13.642;2024-02-21T17:33:43;8.70;99.90
74488;DHT22;63019;51.080;13.642;2024-02-21T17:34:45;8.70;99.90
74488;DHT22;63019;51.080;13.642;2024-02-21T17:35:48;8.70;99.90
74488;DHT22;63019;51.080;13.642;2024-02-21T17:36:51;8.70;99.90
74488;DHT22;63019;51.080;13.642;2024-02-21T17:37:56;8.70;99.90
74488;DHT22;63019;51.080;13.642;2024-02-21T17:38:58;8.60;99.90
74488;DHT22;63019;51.080;13.642;2024-02-21T17:40:02;8.60;99.90
74488;DHT22;63019;51.080;13.642;2024-02-21T17:41:09;8.60;99.90
74488;DHT22;63019;51.080;13.642;2024-02-21T17:42:16;8.60;99.90
74488;DHT22;63019;51.080;13.642;2024-02-21T17:43:18;8.50;99.90
74488;DHT22;63019;51.080;13.642;2024-02-21T17:44:31;8.50;99.90
74488;DHT22;63019;51.080;13.642;2024-02-21T17:45:33;8.50;99.90
74488;DHT22;63019;51.080;13.642;2024-02-21T17:46:53;8.50;99.90
74488;DHT22;63019;51.080;13.642;2024-02-21T17:48:39;8.40;99.90
74488;DHT22;63019;51.080;13.642;2024-02-21T17:49:41;8.40;99.90
74488;DHT22;63019;51.080;13.642;2024-02-21T17:50:49;8.30;99.90
74488;DHT22;63019;51.080;13.642;2024-02-21T17:51:53;8.30;99.90
74488;DHT22;63019;51.080;13.642;2024-02-21T17:52:55;8.20;99.90
74488;DHT22;63019;51.080;13.642;2024-02-21T17:53:58;8.20;99.90
74488;DHT22;63019;51.080;13.642;2024-02-21T17:55:00;8.10;99.90
74488;DHT22;63019;51.080;13.642;2024-02-21T17:56:06;8.10;99.90
74488;DHT22;63019;51.080;13.642;2024-02-21T17:57:10;8.10;99.90
74488;DHT22;63019;51.080;13.642;2024-02-21T17:58:19;8.10;99.90
74488;DHT22;63019;51.080;13.642;2024-02-21T17:59:32;8.00;99.90
74488;DHT22;63019;51.080;13.642;2024-02-21T18:00:34;8.00;99.90
74488;DHT22;63019;51.080;13.642;2024-02-21T18:01:36;8.00;99.90
74488;DHT22;63019;51.080;13.642;2024-02-21T18:02:42;8.00;99.90
74488;DHT22;63019;51.080;13.642;2024-02-21T18:03:44;8.00;99.90
74488;DHT22;63019;51.080;13.642;2024-02-21T18:04:47;8.00;99.90
74488;DHT22;63019;51.080;13.642;2024-02-21T18:05:49;7.90;99.90
74488;DHT22;63019;51.080;13.642;2024-02-21T18:06:51;7.90;99.90
74488;DHT22;63019;51.080;13.642;2024-02-21T18:07:53;7.90;99.90
74488;DHT22;63019;51.080;13.642;2024-02-21T18:08:58;7.90;99.90
74488;DHT22;63019;51.080;13.642;2024-02-21T18:10:00;7.90;99.90
74488;DHT22;63019;51.080;13.642;2024-02-21T18:11:02;7.90;99.90
74488;DHT22;63019;51.080;13.642;2024-02-21T18:12:05;7.90;99.90
74488;DHT22;63019;51.080;13.642;2024-02-21T18:13:07;7.90;99.90
74488;DHT22;63019;51.080;13.642;2024-02-21T18:14:09;7.80;99.90
74488;DHT22;63019;51.080;13.642;2024-02-21T18:15:13;7.80;99.90
74488;DHT22;63019;51.080;13.642;2024-02-21T18:16:18;7.90;99.90
74488;DHT22;63019;51.080;13.642;2024-02-21T18:17:20;7.90;99.90
74488;DHT22;63019;51.080;13.642;2024-02-21T18:18:22;7.90;99.90
74488;DHT22;63019;51.080;13.642;2024-02-21T18:19:25;7.90;99.90
74488;DHT22;63019;51.080;13.642;2024-02-21T18:20:27;7.90;99.90
74488;DHT22;63019;51.080;13.642;2024-02-21T18:21:32;7.90;99.90
74488;DHT22;63019;51.080;13.642;2024-02-21T18:22:34;7.90;99.90
74488;DHT22;63019;51.080;13.642;2024-02-21T18:23:36;7.90;99.90
74488;DHT22;63019;51.080;13.642;2024-02-21T18:24:38;8.00;99.90
74488;DHT22;63019;51.080;13.642;2024-02-21T18:25:40;8.00;99.90
74488;DHT22;63019;51.080;13.642;2024-02-21T18:26:42;8.00;99.90
74488;DHT22;63019;51.080;13.642;2024-02-21T18:27:44;8.00;99.90
74488;DHT22;63019;51.080;13.642;2024-02-21T18:28:46;8.00;99.90